Time;durP1;ratioP1;P1;durP2;ratioP2;P2;SDS_P1;SDS_P2;PMS_P1;PMS_P2;Temp;Humidity;BMP_temperature;BMP_pressure;BME280_temperature;BME280_humidity;BME280_pressure;Samples;Min_cycle;Max_cycle;Signal;HPM_P1;HPM_P2
2023/01/22 00:00:29;;;;;;;97.30;23.80;;;1.10;99.90;;;;;;4985291;28;20186;-84
2023/01/22 00:03:07;;;;;;;99.70;23.92;;;1.10;99.90;;;;;;5002019;28;20720;-84
2023/01/22 00:05:46;;;;;;;97.78;24.27;;;1.10;99.90;;;;;;4984403;28;20589;-84
2023/01/22 00:08:54;;;;;;;;;;;;;;;;;;;;;
2023/01/22 00:11:22;;;;;;;101.30;26.00;;;1.00;99.90;;;;;;5002472;28;20241;-84
2023/01/22 00:14:16;;;;;;;95.15;26.73;;;1.00;99.90;;;;;;4985076;28;20180;-84
2023/01/22 00:16:48;;;;;;;98.75;23.92;;;1.00;99.90;;;;;;5002580;28;20167;-84
2023/01/22 00:19:23;;;;;;;94.60;20.98;;;1.00;99.90;;;;;;4985448;28;20661;-83
2023/01/22 00:22:07;;;;;;;;;;;;;;;;;;;;;
2023/01/22 00:24:42;;;;;;;101.70;27.90;;;1.00;99.90;;;;;;5002733;28;20253;-84
2023/01/22 00:27:29;;;;;;;97.78;24.90;;;1.00;99.90;;;;;;5001865;28;20641;-84
2023/01/22 00:29:59;;;;;;;98.80;26.20;;;1.10;99.90;;;;;;4984247;28;20254;-83
2023/01/22 00:32:27;;;;;;;95.40;25.70;;;1.00;99.90;;;;;;4984711;28;20182;-84
2023/01/22 00:35:07;;;;;;;93.40;24.27;;;1.10;99.90;;;;;;4982407;28;20254;-83
2023/01/22 00:37:58;;;;;;;104.97;41.80;;;1.20;99.90;;;;;;4983386;28;20183;-83
2023/01/22 00:40:34;;;;;;;97.07;24.98;;;1.20;99.90;;;;;;4976786;28;20301;-82
2023/01/22 00:43:37;;;;;;;94.35;20.85;;;1.20;99.90;;;;;;4984754;28;20173;-83
2023/01/22 00:46:05;;;;;;;95.10;23.52;;;1.30;99.90;;;;;;4983955;28;20170;-83
2023/01/22 00:48:36;;;;;;;92.07;22.83;;;1.20;99.90;;;;;;4985651;28;20177;-83
2023/01/22 00:51:03;;;;;;;90.35;20.08;;;1.30;99.90;;;;;;5001635;28;20202;-83
2023/01/22 00:53:35;;;;;;;89.38;20.27;;;1.40;99.90;;;;;;5001574;28;20171;-83
2023/01/22 00:56:04;;;;;;;90.80;19.48;;;1.40;99.90;;;;;;5002887;28;20599;-84
2023/01/22 00:58:42;;;;;;;85.50;17.08;;;1.30;99.90;;;;;;4984498;28;20290;-84
2023/01/22 01:01:18;;;;;;;85.07;18.55;;;1.40;99.90;;;;;;5001707;28;20252;-84
2023/01/22 01:03:48;;;;;;;89.90;19.45;;;1.40;99.90;;;;;;4985394;28;20213;-82
2023/01/22 01:06:17;;;;;;;87.53;20.33;;;1.40;99.90;;;;;;5001725;28;20198;-83
2023/01/22 01:09:28;;;;;;;86.90;22.20;;;1.40;99.90;;;;;;5002480;28;20224;-83
2023/01/22 01:11:32;;;;;;;89.03;22.90;;;1.40;99.90;;;;;;4991028;28;20205;-84
2023/01/22 01:14:07;;;;;;;88.10;21.30;;;1.40;99.90;;;;;;4984564;28;20664;-84
2023/01/22 01:16:35;;;;;;;84.65;22.33;;;1.40;99.90;;;;;;5001593;28;20218;-83
2023/01/22 01:19:49;;;;;;;92.40;20.50;;;1.30;99.90;;;;;;4984190;28;20187;-84
2023/01/22 01:22:06;;;;;;;91.72;22.70;;;1.30;99.90;;;;;;4991103;28;20291;-84
2023/01/22 01:24:40;;;;;;;89.60;22.48;;;1.40;99.90;;;;;;5001147;28;20177;-83
2023/01/22 01:27:21;;;;;;;91.95;22.83;;;1.40;99.90;;;;;;4985057;28;20166;-83
2023/01/22 01:29:58;;;;;;;89.63;21.20;;;1.30;99.90;;;;;;4984860;28;20175;-84
2023/01/22 01:32:35;;;;;;;88.57;20.88;;;1.30;99.90;;;;;;5001898;28;20155;-84
2023/01/22 01:35:19;;;;;;;84.57;18.30;;;1.30;99.90;;;;;;5001817;28;20159;-83
2023/01/22 01:37:57;;;;;;;;;;;;;;;;;;;;;
2023/01/22 01:40:23;;;;;;;91.90;22.15;;;1.30;99.90;;;;;;5001992;28;20261;-83
2023/01/22 01:43:20;;;;;;;89.47;18.47;;;1.30;99.90;;;;;;5002145;28;20191;-83
2023/01/22 01:45:48;;;;;;;81.63;18.83;;;1.30;99.90;;;;;;4967002;28;20409;-84
2023/01/22 01:48:37;;;;;;;90.85;20.38;;;1.30;99.90;;;;;;5001658;28;20190;-83
2023/01/22 01:51:22;;;;;;;91.90;20.15;;;1.30;99.90;;;;;;4983613;28;20195;-83
2023/01/22 01:54:00;;;;;;;90.22;20.70;;;1.30;99.90;;;;;;5000837;28;20630;-83
2023/01/22 01:56:33;;;;;;;88.97;19.30;;;1.30;99.90;;;;;;4983943;28;20166;-83
2023/01/22 01:59:16;;;;;;;89.85;19.50;;;1.30;99.90;;;;;;5000904;28;20156;-84
2023/01/22 02:01:56;;;;;;;86.80;18.13;;;1.20;99.90;;;;;;5000988;28;20194;-83
2023/01/22 02:04:36;;;;;;;90.35;23.65;;;1.20;99.90;;;;;;4986441;28;20557;-84
2023/01/22 02:07:08;;;;;;;88.40;18.95;;;1.30;99.90;;;;;;5003974;28;20147;-83
2023/01/22 02:09:45;;;;;;;89.03;20.50;;;1.30;99.90;;;;;;5004058;28;20170;-83
2023/01/22 02:12:17;;;;;;;87.55;19.33;;;1.20;99.90;;;;;;5003946;28;20174;-84
2023/01/22 02:14:53;;;;;;;85.93;20.15;;;1.20;99.90;;;;;;4986700;28;20171;-83
2023/01/22 02:17:29;;;;;;;89.22;19.25;;;1.20;99.90;;;;;;5004003;28;20549;-84
2023/01/22 02:20:12;;;;;;;89.97;19.42;;;1.20;99.90;;;;;;5005571;28;20193;-84
2023/01/22 02:22:48;;;;;;;88.45;18.98;;;1.30;99.90;;;;;;4986892;28;20633;-84
2023/01/22 02:25:22;;;;;;;94.28;20.70;;;1.30;99.90;;;;;;5004388;28;20158;-84
2023/01/22 02:27:58;;;;;;;;;;;;;;;;;;;;;
2023/01/22 02:30:35;;;;;;;90.90;23.35;;;1.10;99.90;;;;;;5002645;28;20297;-84
2023/01/22 02:33:06;;;;;;;91.07;22.13;;;1.10;99.90;;;;;;4986787;28;20175;-84
2023/01/22 02:35:44;;;;;;;94.07;22.10;;;1.10;99.90;;;;;;5003301;28;20151;-84
2023/01/22 02:38:27;;;;;;;93.57;22.58;;;1.10;99.90;;;;;;5003571;28;20147;-83
2023/01/22 02:40:59;;;;;;;96.35;22.40;;;1.20;99.90;;;;;;5003141;28;20202;-84
2023/01/22 02:43:44;;;;;;;101.53;24.40;;;1.10;99.90;;;;;;5003658;28;20163;-83
2023/01/22 02:46:29;;;;;;;;;;;;;;;;;;;;;
2023/01/22 02:48:55;;;;;;;93.35;22.88;;;1.10;99.90;;;;;;5004630;28;20249;-84
2023/01/22 02:51:29;;;;;;;92.67;22.80;;;1.20;99.90;;;;;;5003084;28;20220;-82
2023/01/22 02:54:06;;;;;;;93.40;24.08;;;1.20;99.90;;;;;;4986336;28;20166;-83
2023/01/22 02:56:40;;;;;;;94.65;22.98;;;1.20;99.90;;;;;;4985729;28;20587;-82
2023/01/22 02:59:06;;;;;;;93.32;23.60;;;1.20;99.90;;;;;;4985696;28;20181;-83
2023/01/22 03:01:41;;;;;;;97.38;21.38;;;1.20;99.90;;;;;;5003473;28;20201;-84
2023/01/22 03:04:21;;;;;;;94.43;21.75;;;1.30;99.90;;;;;;5003333;28;20151;-84
2023/01/22 03:06:47;;;;;;;96.07;20.38;;;1.30;99.90;;;;;;4984912;28;20181;-84
2023/01/22 03:09:25;;;;;;;;;;;;;;;;;;;;;
2023/01/22 03:11:51;;;;;;;92.00;21.80;;;1.20;99.90;;;;;;5002808;28;20529;-83
2023/01/22 03:23:06;;;;;;;89.07;20.85;;;1.20;99.90;;;;;;5002889;28;20154;-83
2023/01/22 03:25:35;;;;;;;95.35;21.65;;;1.20;99.90;;;;;;5002801;28;20149;-84
2023/01/22 03:28:17;;;;;;;94.47;20.27;;;1.10;99.90;;;;;;4985424;28;20177;-84
2023/01/22 03:30:50;;;;;;;94.30;22.60;;;1.10;99.90;;;;;;4984794;28;20194;-83
2023/01/22 03:33:35;;;;;;;94.88;23.55;;;1.10;99.90;;;;;;5002875;28;20158;-84
2023/01/22 03:36:14;;;;;;;89.25;24.35;;;1.10;99.90;;;;;;4984824;28;20208;-83
2023/01/22 03:38:56;;;;;;;89.72;21.83;;;1.10;99.90;;;;;;4982288;28;20206;-83
2023/01/22 03:41:24;;;;;;;89.32;20.10;;;1.10;99.90;;;;;;5002019;28;20230;-83
2023/01/22 03:44:10;;;;;;;91.05;20.08;;;1.10;99.90;;;;;;4984377;28;20599;-83
2023/01/22 03:46:44;;;;;;;86.93;19.13;;;1.10;99.90;;;;;;5003050;28;20142;-83
2023/01/22 03:49:26;;;;;;;92.35;19.35;;;1.20;99.90;;;;;;4985081;28;20163;-83
2023/01/22 03:51:52;;;;;;;91.68;19.23;;;1.20;99.90;;;;;;5001854;28;20190;-84
2023/01/22 03:54:29;;;;;;;91.37;22.70;;;1.20;99.90;;;;;;4984607;28;20178;-84
2023/01/22 03:57:13;;;;;;;95.03;22.80;;;1.10;99.90;;;;;;5002317;28;20776;-84
2023/01/22 03:59:41;;;;;;;90.85;21.00;;;1.10;99.90;;;;;;4985542;28;20581;-84
2023/01/22 04:02:15;;;;;;;96.03;22.80;;;1.10;99.90;;;;;;4983837;28;20621;-84
2023/01/22 04:04:44;;;;;;;97.40;23.27;;;1.10;99.90;;;;;;4984940;28;20167;-84
2023/01/22 04:07:12;;;;;;;94.60;23.90;;;1.10;99.90;;;;;;5000797;28;20167;-84
2023/01/22 04:09:38;;;;;;;89.07;22.00;;;1.00;99.90;;;;;;5001255;28;20166;-84
2023/01/22 04:12:07;;;;;;;88.97;20.37;;;1.10;99.90;;;;;;4983503;28;20236;-84
2023/01/22 04:14:38;;;;;;;93.47;24.10;;;1.10;99.90;;;;;;4984139;28;20420;-84
2023/01/22 04:17:07;;;;;;;90.03;20.90;;;1.10;99.90;;;;;;5000831;28;20522;-84
2023/01/22 04:19:41;;;;;;;91.22;20.70;;;1.10;99.90;;;;;;4983296;28;20735;-84
2023/01/22 04:22:13;;;;;;;95.03;22.70;;;1.10;99.90;;;;;;5001486;28;20198;-84
2023/01/22 04:24:43;;;;;;;94.93;24.77;;;1.10;99.90;;;;;;5002592;28;20177;-84
2023/01/22 04:27:15;;;;;;;91.60;22.50;;;1.10;99.90;;;;;;5000879;28;20162;-84
2023/01/22 04:29:54;;;;;;;89.90;24.13;;;1.10;99.90;;;;;;4983993;28;20173;-84
2023/01/22 04:32:22;;;;;;;105.22;32.78;;;1.00;99.90;;;;;;5001157;28;20192;-84
2023/01/22 04:35:03;;;;;;;;;;;;;;;;;;;;;
2023/01/22 04:37:38;;;;;;;88.78;22.85;;;1.00;99.90;;;;;;5001460;28;20681;-84
2023/01/22 04:40:15;;;;;;;93.15;22.70;;;1.00;99.90;;;;;;5000746;28;20198;-84
2023/01/22 04:43:08;;;;;;;93.07;23.00;;;1.10;99.90;;;;;;5001074;28;20166;-84
2023/01/22 04:45:34;;;;;;;91.35;21.70;;;1.10;99.90;;;;;;5002039;28;20197;-84
2023/01/22 04:48:32;;;;;;;93.77;23.00;;;1.10;99.90;;;;;;4984759;28;20170;-84
2023/01/22 04:51:07;;;;;;;91.03;21.88;;;1.10;99.90;;;;;;4922039;29;20441;-84
2023/01/22 04:53:36;;;;;;;87.55;20.45;;;1.10;99.90;;;;;;4984585;28;20695;-83
2023/01/22 04:56:07;;;;;;;92.20;22.90;;;1.10;99.90;;;;;;4984489;28;20167;-83
2023/01/22 04:58:45;;;;;;;93.63;23.02;;;1.10;99.90;;;;;;4984627;28;20189;-84
2023/01/22 05:01:19;;;;;;;88.78;21.60;;;1.10;99.90;;;;;;4983987;28;20222;-84
2023/01/22 05:03:53;;;;;;;91.68;22.75;;;1.10;99.90;;;;;;5000686;28;20154;-84
2023/01/22 05:06:23;;;;;;;96.45;23.98;;;1.10;99.90;;;;;;5000625;28;20163;-84
2023/01/22 05:08:55;;;;;;;90.80;21.05;;;1.10;99.90;;;;;;5001050;28;20143;-83
2023/01/22 05:11:20;;;;;;;88.10;21.42;;;1.20;99.90;;;;;;4982304;28;20219;-84
2023/01/22 05:13:49;;;;;;;89.80;22.53;;;1.10;99.90;;;;;;4983312;28;20174;-84
2023/01/22 05:18:43;;;;;;;86.55;18.42;;;1.20;99.90;;;;;;5081084;22;20238;-83
2023/01/22 05:21:09;;;;;;;91.20;19.30;;;1.20;99.90;;;;;;4997900;28;20221;-83
2023/01/22 05:23:43;;;;;;;90.43;19.80;;;1.20;99.90;;;;;;4997938;28;20173;-83
2023/01/22 05:26:12;;;;;;;87.88;20.05;;;1.30;99.90;;;;;;4998622;28;20143;-83
2023/01/22 05:28:38;;;;;;;87.25;18.55;;;1.20;99.90;;;;;;4998644;28;20594;-83
2023/01/22 05:31:04;;;;;;;85.80;18.67;;;1.20;99.90;;;;;;4998230;28;20210;-83
2023/01/22 05:33:30;;;;;;;83.23;18.17;;;1.20;99.90;;;;;;4998743;28;20197;-83
2023/01/22 05:36:01;;;;;;;87.25;19.50;;;1.20;99.90;;;;;;4998470;28;20406;-83
2023/01/22 05:38:30;;;;;;;87.63;19.75;;;1.20;99.90;;;;;;5000846;28;20147;-83
2023/01/22 05:40:56;;;;;;;92.03;19.48;;;1.20;99.90;;;;;;5001885;28;20183;-83
2023/01/22 05:43:27;;;;;;;87.07;18.73;;;1.20;99.90;;;;;;5002777;28;20193;-83
2023/01/22 05:45:53;;;;;;;84.25;19.05;;;1.20;99.90;;;;;;5001904;28;20388;-83
2023/01/22 05:48:22;;;;;;;83.67;17.57;;;1.10;99.90;;;;;;4984594;28;20166;-83
2023/01/22 05:50:53;;;;;;;84.93;20.25;;;1.10;99.90;;;;;;5001335;28;20255;-83
2023/01/22 05:53:18;;;;;;;86.07;19.45;;;1.20;99.90;;;;;;5001484;28;20166;-83
2023/01/22 05:55:44;;;;;;;84.23;18.80;;;1.20;99.90;;;;;;4984887;28;20181;-83
2023/01/22 05:58:10;;;;;;;85.83;18.10;;;1.20;99.90;;;;;;5001815;28;20174;-83
2023/01/22 06:00:38;;;;;;;82.40;19.30;;;1.20;99.90;;;;;;5001637;28;20198;-83
2023/01/22 06:03:04;;;;;;;81.95;16.70;;;1.20;99.90;;;;;;5001516;28;20417;-83
2023/01/22 06:05:29;;;;;;;82.93;17.80;;;1.20;99.90;;;;;;5002195;28;20159;-83
2023/01/22 06:07:58;;;;;;;82.17;17.97;;;1.20;99.90;;;;;;4984131;28;20213;-83
2023/01/22 06:10:24;;;;;;;84.05;19.67;;;1.10;99.90;;;;;;5001400;28;20301;-83
2023/01/22 06:12:49;;;;;;;86.83;16.97;;;1.20;99.90;;;;;;5001453;28;20198;-83
2023/01/22 06:15:15;;;;;;;81.33;17.97;;;1.30;99.90;;;;;;5001008;28;20225;-83
2023/01/22 06:17:41;;;;;;;84.13;18.93;;;1.20;99.90;;;;;;5001059;28;20218;-83
2023/01/22 06:20:13;;;;;;;80.77;17.00;;;1.20;99.90;;;;;;5001236;28;20912;-83
2023/01/22 06:22:42;;;;;;;83.25;17.55;;;1.20;99.90;;;;;;4984052;28;20590;-83
2023/01/22 06:25:08;;;;;;;79.90;17.45;;;1.20;99.90;;;;;;5000440;28;20166;-83
2023/01/22 06:27:37;;;;;;;81.18;16.23;;;1.20;99.90;;;;;;5001743;28;20258;-83
2023/01/22 06:30:03;;;;;;;80.78;17.73;;;1.20;99.90;;;;;;5000915;28;20171;-83
2023/01/22 06:32:34;;;;;;;87.75;19.52;;;1.20;99.90;;;;;;5001038;28;20167;-83
2023/01/22 06:35:00;;;;;;;83.75;18.92;;;1.20;99.90;;;;;;5001393;28;20147;-83
2023/01/22 06:37:44;;;;;;;84.20;19.13;;;1.20;99.90;;;;;;4983319;28;20239;-83
2023/01/22 06:40:13;;;;;;;85.20;17.70;;;1.20;99.90;;;;;;5000756;28;20203;-83
2023/01/22 06:43:14;;;;;;;;;;;;;;;;;;;;;
2023/01/22 06:45:40;;;;;;;83.18;18.02;;;1.30;99.90;;;;;;5001716;28;20570;-83
2023/01/22 06:48:20;;;;;;;87.87;17.77;;;1.20;99.90;;;;;;4985204;28;20194;-83
2023/01/22 06:51:23;;;;;;;83.20;18.58;;;1.20;99.90;;;;;;5001371;28;20190;-83
2023/01/22 06:53:51;;;;;;;84.80;18.15;;;1.20;99.90;;;;;;4983289;28;20178;-83
2023/01/22 06:56:20;;;;;;;84.70;18.35;;;1.20;99.90;;;;;;5001883;28;20170;-83
2023/01/22 06:58:46;;;;;;;84.10;20.88;;;1.20;99.90;;;;;;5002612;28;20170;-83
2023/01/22 07:01:14;;;;;;;81.33;17.40;;;1.20;99.90;;;;;;5002278;28;20312;-82
2023/01/22 07:03:41;;;;;;;79.78;16.98;;;1.20;99.90;;;;;;4984400;28;20198;-83
2023/01/22 07:06:08;;;;;;;83.60;20.00;;;1.10;99.90;;;;;;5002725;28;20235;-82
2023/01/22 07:08:40;;;;;;;83.47;18.95;;;1.20;99.90;;;;;;4984325;28;20206;-83
2023/01/22 07:11:05;;;;;;;84.85;18.70;;;1.20;99.90;;;;;;5002033;28;20218;-82
2023/01/22 07:13:31;;;;;;;85.37;19.70;;;1.20;99.90;;;;;;4984652;28;20179;-83
2023/01/22 07:16:01;;;;;;;87.83;19.77;;;1.20;99.90;;;;;;5002461;28;20166;-83
2023/01/22 07:19:38;;;;;;;79.90;17.75;;;1.20;99.90;;;;;;4984225;28;20197;-82
2023/01/22 07:22:16;;;;;;;83.55;17.38;;;1.20;99.90;;;;;;4993281;28;20191;-82
2023/01/22 07:24:55;;;;;;;83.10;18.02;;;1.20;99.90;;;;;;5000976;28;20175;-83
2023/01/22 07:28:13;;;;;;;81.07;16.88;;;1.20;99.90;;;;;;4983652;28;20170;-82
2023/01/22 07:31:14;;;;;;;80.43;16.02;;;1.20;99.90;;;;;;4925961;28;20208;-83
2023/01/22 07:33:54;;;;;;;82.47;17.83;;;1.20;99.90;;;;;;4989279;28;20183;-83
2023/01/22 07:37:13;;;;;;;;;;;;;;;;;;;;;
2023/01/22 07:45:52;;;;;;;81.57;17.42;;;1.20;99.90;;;;;;4920012;29;20165;-83
2023/01/22 08:00:35;;;;;;;;;;;;;;;;;;;;;
2023/01/22 08:09:52;;;;;;;90.95;21.27;;;1.20;99.90;;;;;;4933083;28;20172;-82
2023/01/22 08:13:15;;;;;;;84.23;22.30;;;1.20;99.90;;;;;;4998804;28;20174;-83
2023/01/22 08:16:25;;;;;;;87.85;22.30;;;1.20;99.90;;;;;;4998250;28;20202;-82
2023/01/22 08:19:51;;;;;;;;;;;;;;;;;;;;;
2023/01/22 08:45:29;;;;;;;85.97;19.67;;;1.30;99.90;;;;;;5003169;23;20241;-81
2023/01/22 08:48:41;;;;;;;;;;;;;;;;;;;;;
2023/01/22 09:01:38;;;;;;;80.50;18.48;;;1.40;99.90;;;;;;4978285;28;20198;-81
2023/01/22 09:04:57;;;;;;;87.55;24.35;;;1.30;99.90;;;;;;4979588;28;20263;-81
2023/01/22 09:07:56;;;;;;;82.20;20.42;;;1.30;99.90;;;;;;4997222;28;20140;-81
2023/01/22 09:14:17;;;;;;;82.25;19.67;;;1.40;99.90;;;;;;4998948;28;20166;-82
2023/01/22 09:17:26;;;;;;;83.32;19.83;;;1.40;99.90;;;;;;4972922;28;20546;-82
2023/01/22 09:19:59;;;;;;;81.53;18.98;;;1.50;99.90;;;;;;4997398;28;20174;-81
2023/01/22 09:22:57;;;;;;;84.00;20.70;;;1.50;99.90;;;;;;4998939;28;20198;-82
2023/01/22 09:25:43;;;;;;;81.38;18.52;;;1.50;99.90;;;;;;4995519;28;20653;-82
2023/01/22 09:28:24;;;;;;;81.82;18.10;;;1.50;99.90;;;;;;4998220;28;20170;-82
2023/01/22 09:31:16;;;;;;;81.43;16.52;;;1.50;99.90;;;;;;4998160;28;20182;-82
2023/01/22 09:34:12;;;;;;;83.10;18.23;;;1.50;99.90;;;;;;4997796;28;20158;-82
2023/01/22 09:36:51;;;;;;;79.00;17.40;;;1.50;99.90;;;;;;4993973;28;20179;-82
2023/01/22 09:39:29;;;;;;;81.20;17.80;;;1.60;99.90;;;;;;4997702;28;20205;-82
2023/01/22 09:42:05;;;;;;;78.85;17.85;;;1.60;99.90;;;;;;4998377;28;20681;-82
2023/01/22 09:44:37;;;;;;;81.85;16.90;;;1.60;99.90;;;;;;4998038;28;20177;-82
2023/01/22 09:47:18;;;;;;;85.80;16.38;;;1.60;99.90;;;;;;4998087;28;20626;-82
2023/01/22 09:49:55;;;;;;;78.22;15.60;;;1.70;99.90;;;;;;4997876;28;20182;-82
2023/01/22 09:52:53;;;;;;;80.05;17.90;;;1.70;99.90;;;;;;4997120;28;20273;-82
2023/01/22 09:56:07;;;;;;;81.57;16.83;;;1.70;99.90;;;;;;4994576;28;20185;-82
2023/01/22 09:58:43;;;;;;;79.70;16.73;;;1.60;99.90;;;;;;4998387;28;20170;-82
2023/01/22 10:01:12;;;;;;;81.57;18.30;;;1.70;99.90;;;;;;4997829;28;20194;-82
2023/01/22 10:04:06;;;;;;;81.35;18.48;;;1.80;99.90;;;;;;4997560;28;20167;-82
2023/01/22 10:06:42;;;;;;;77.47;17.08;;;1.80;99.90;;;;;;4998293;28;20147;-81
2023/01/22 10:09:19;;;;;;;79.80;17.95;;;1.70;99.90;;;;;;4997859;28;20143;-82
2023/01/22 10:11:54;;;;;;;80.35;17.33;;;1.80;99.90;;;;;;4979888;28;20206;-81
2023/01/22 10:14:26;;;;;;;80.57;17.20;;;1.90;99.90;;;;;;4997358;28;20158;-81
2023/01/22 10:16:52;;;;;;;80.22;19.50;;;1.90;99.90;;;;;;4980003;28;20562;-81
2023/01/22 10:19:57;;;;;;;83.37;19.63;;;1.90;99.90;;;;;;4980023;28;20194;-81
2023/01/22 10:22:25;;;;;;;83.13;20.25;;;1.90;99.90;;;;;;4990203;28;20225;-81
2023/01/22 10:25:18;;;;;;;79.47;20.35;;;1.90;99.90;;;;;;4981341;28;20665;-81
2023/01/22 10:27:46;;;;;;;83.90;18.75;;;1.90;99.90;;;;;;4981647;28;20187;-81
2023/01/22 10:30:25;;;;;;;78.38;17.55;;;1.90;99.90;;;;;;5000011;28;20191;-80
2023/01/22 10:33:23;;;;;;;88.00;20.30;;;1.90;99.90;;;;;;4982330;28;20163;-80
2023/01/22 10:35:55;;;;;;;83.35;18.65;;;1.90;99.90;;;;;;4999530;28;20622;-81
2023/01/22 10:38:29;;;;;;;82.30;20.13;;;1.90;99.90;;;;;;4999563;28;20214;-80
2023/01/22 10:41:15;;;;;;;81.63;20.75;;;2.00;99.90;;;;;;4999875;28;20191;-80
2023/01/22 10:43:43;;;;;;;81.82;19.58;;;2.00;99.90;;;;;;4982482;28;20162;-80
2023/01/22 10:46:25;;;;;;;81.15;18.33;;;2.00;99.90;;;;;;4982235;28;20177;-81
2023/01/22 10:49:07;;;;;;;89.05;23.05;;;2.10;99.90;;;;;;4998925;28;20241;-81
2023/01/22 10:51:57;;;;;;;85.22;21.60;;;2.10;99.90;;;;;;4999644;28;20229;-81
2023/01/22 10:54:27;;;;;;;84.60;20.58;;;2.20;99.90;;;;;;4995422;28;20233;-81
2023/01/22 10:57:16;;;;;;;82.45;22.50;;;2.10;99.90;;;;;;4981824;28;20197;-81
2023/01/22 10:59:53;;;;;;;81.63;20.55;;;2.10;99.90;;;;;;4982384;28;20154;-81
2023/01/22 11:02:33;;;;;;;83.78;21.58;;;2.10;99.90;;;;;;5000357;28;20178;-81
2023/01/22 11:05:20;;;;;;;81.10;22.63;;;2.10;99.90;;;;;;4999867;28;20149;-81
2023/01/22 11:08:04;;;;;;;82.68;19.90;;;2.20;99.90;;;;;;4999978;28;20161;-81
2023/01/22 11:10:47;;;;;;;85.55;20.42;;;2.20;99.90;;;;;;4982084;28;20198;-81
2023/01/22 11:13:30;;;;;;;83.38;22.90;;;2.20;99.90;;;;;;4999700;28;20177;-81
2023/01/22 11:16:09;;;;;;;84.05;20.88;;;2.20;99.90;;;;;;4982426;28;20163;-80
2023/01/22 11:18:42;;;;;;;84.63;21.05;;;2.20;99.90;;;;;;5103090;22;20760;-84
2023/01/22 11:21:19;;;;;;;87.15;22.55;;;2.30;99.90;;;;;;5000807;28;20201;-83
2023/01/22 11:24:09;;;;;;;86.55;21.17;;;2.30;99.90;;;;;;5001452;28;20182;-83
2023/01/22 11:26:49;;;;;;;83.18;20.10;;;2.30;99.90;;;;;;5001011;28;20196;-83
2023/01/22 11:29:48;;;;;;;83.63;21.60;;;2.30;99.90;;;;;;5001073;28;20147;-83
2023/01/22 11:32:47;;;;;;;85.45;23.02;;;2.30;99.90;;;;;;5001268;28;20231;-83
2023/01/22 11:35:51;;;;;;;81.90;20.35;;;2.30;99.90;;;;;;5001603;28;20162;-83
2023/01/22 11:38:25;;;;;;;81.57;18.20;;;2.30;99.90;;;;;;4958300;28;20591;-84
2023/01/22 11:41:25;;;;;;;85.60;21.20;;;2.30;99.90;;;;;;5001067;28;20748;-83
2023/01/22 11:44:29;;;;;;;80.82;18.52;;;2.40;99.90;;;;;;4984742;28;20163;-83
2023/01/22 11:47:20;;;;;;;84.07;19.35;;;2.40;99.90;;;;;;4957606;28;20237;-82
2023/01/22 11:50:21;;;;;;;84.38;18.10;;;2.40;99.90;;;;;;5001045;28;20264;-83
2023/01/22 11:52:49;;;;;;;78.90;18.08;;;2.40;99.90;;;;;;4996908;28;20182;-83
2023/01/22 11:55:48;;;;;;;85.50;19.05;;;2.40;99.90;;;;;;5000830;28;20235;-84
2023/01/22 11:58:16;;;;;;;82.47;16.75;;;2.40;99.90;;;;;;5000811;28;20155;-84
2023/01/22 12:00:47;;;;;;;82.22;18.55;;;2.50;99.90;;;;;;5000384;28;20281;-84
2023/01/22 12:03:20;;;;;;;87.75;20.27;;;2.50;99.90;;;;;;5000592;28;20151;-83
2023/01/22 12:06:02;;;;;;;84.10;20.25;;;2.40;99.90;;;;;;5000229;28;20166;-83
2023/01/22 12:08:43;;;;;;;81.00;17.20;;;2.50;99.90;;;;;;5000261;28;20669;-83
2023/01/22 12:11:36;;;;;;;80.78;15.52;;;2.40;99.90;;;;;;5000172;28;20186;-83
2023/01/22 12:14:10;;;;;;;84.32;18.55;;;2.40;99.90;;;;;;5000749;28;20179;-83
2023/01/22 12:16:39;;;;;;;82.28;15.70;;;2.40;99.90;;;;;;4982887;28;20170;-83
2023/01/22 12:19:23;;;;;;;84.13;17.00;;;2.40;99.90;;;;;;4999517;28;20182;-83
2023/01/22 12:22:04;;;;;;;86.97;17.88;;;2.40;99.90;;;;;;4982069;28;20198;-83
2023/01/22 12:24:57;;;;;;;81.97;15.93;;;2.40;99.90;;;;;;4982304;28;20182;-83
2023/01/22 12:27:37;;;;;;;85.22;18.63;;;2.40;99.90;;;;;;4963116;28;20178;-83
2023/01/22 12:30:15;;;;;;;81.47;15.90;;;2.40;99.90;;;;;;4999878;28;20214;-83
2023/01/22 12:32:48;;;;;;;82.07;18.08;;;2.30;99.90;;;;;;4982225;28;20166;-83
2023/01/22 12:35:18;;;;;;;82.25;18.48;;;2.30;99.90;;;;;;4981823;28;20159;-83
2023/01/22 12:37:49;;;;;;;84.70;19.75;;;2.30;99.90;;;;;;4999332;28;20165;-83
2023/01/22 12:40:25;;;;;;;85.72;21.13;;;2.30;99.90;;;;;;4999654;28;20657;-83
2023/01/22 12:43:00;;;;;;;87.32;19.85;;;2.30;99.90;;;;;;4999706;28;20182;-83
2023/01/22 12:45:40;;;;;;;85.15;20.83;;;2.30;99.90;;;;;;4999214;28;20201;-83
2023/01/22 12:48:06;;;;;;;87.60;19.55;;;2.30;99.90;;;;;;4999204;28;20151;-83
2023/01/22 12:50:32;;;;;;;93.33;21.17;;;2.30;99.90;;;;;;4999161;28;20266;-83
2023/01/22 12:53:26;;;;;;;84.47;21.00;;;2.30;99.90;;;;;;4982204;28;20171;-83
2023/01/22 12:56:01;;;;;;;85.18;20.33;;;2.40;99.90;;;;;;4982073;28;20186;-83
2023/01/22 12:58:30;;;;;;;83.07;18.35;;;2.30;99.90;;;;;;4982148;28;20529;-83
2023/01/22 13:01:08;;;;;;;83.00;18.08;;;2.40;99.90;;;;;;4981149;28;20198;-83
2023/01/22 13:03:34;;;;;;;82.70;17.65;;;2.30;99.90;;;;;;4982124;28;20569;-83
2023/01/22 13:06:03;;;;;;;81.15;15.85;;;2.40;99.90;;;;;;4999671;28;20162;-83
2023/01/22 13:08:41;;;;;;;85.18;19.77;;;2.40;99.90;;;;;;4999770;28;20286;-83
2023/01/22 13:11:13;;;;;;;84.00;18.10;;;2.30;99.90;;;;;;4982083;28;20194;-83
2023/01/22 13:13:49;;;;;;;82.22;18.27;;;2.40;99.90;;;;;;4982750;28;20170;-85
2023/01/22 13:16:15;;;;;;;84.55;18.77;;;2.30;99.90;;;;;;4999652;28;20610;-85
2023/01/22 13:18:52;;;;;;;85.07;17.70;;;2.40;99.90;;;;;;4998754;28;20197;-85
2023/01/22 13:21:27;;;;;;;86.30;16.95;;;2.40;99.90;;;;;;4998363;28;20194;-85
2023/01/22 13:24:02;;;;;;;82.43;16.83;;;2.40;99.90;;;;;;4981820;28;20208;-85
2023/01/22 13:26:33;;;;;;;84.82;18.10;;;2.40;99.90;;;;;;4999102;28;20159;-85
2023/01/22 13:29:01;;;;;;;83.38;18.13;;;2.40;99.90;;;;;;4999220;28;20157;-85
2023/01/22 13:31:27;;;;;;;82.32;17.50;;;2.50;99.90;;;;;;4999460;28;20266;-85
2023/01/22 13:34:07;;;;;;;86.50;19.70;;;2.40;99.90;;;;;;4999398;28;20728;-85
2023/01/22 13:36:35;;;;;;;83.80;18.50;;;2.40;99.90;;;;;;4998458;28;20541;-85
2023/01/22 13:39:01;;;;;;;84.55;19.05;;;2.40;99.90;;;;;;4982095;28;20178;-85
2023/01/22 13:41:38;;;;;;;85.10;18.30;;;2.30;99.90;;;;;;4999455;28;20194;-85
2023/01/22 13:44:06;;;;;;;86.13;17.17;;;2.40;99.90;;;;;;4965907;28;20642;-85
2023/01/22 13:46:36;;;;;;;87.55;19.27;;;2.40;99.90;;;;;;4998409;28;20171;-85
2023/01/22 13:49:09;;;;;;;85.88;18.45;;;2.40;99.90;;;;;;4998534;28;20170;-85
2023/01/22 13:51:36;;;;;;;87.18;21.95;;;2.40;99.90;;;;;;4999070;28;20237;-85
2023/01/22 13:54:03;;;;;;;86.57;21.27;;;2.30;99.90;;;;;;4999510;28;20713;-85
2023/01/22 13:56:29;;;;;;;85.70;20.58;;;2.40;99.90;;;;;;4981442;28;20170;-85
2023/01/22 13:59:22;;;;;;;84.20;20.45;;;2.40;99.90;;;;;;5000296;28;20616;-84
2023/01/22 14:01:49;;;;;;;88.78;21.08;;;2.40;99.90;;;;;;5004641;28;20205;-84
2023/01/22 14:04:27;;;;;;;83.80;19.75;;;2.30;99.90;;;;;;5003329;28;20178;-85
2023/01/22 14:06:53;;;;;;;83.75;18.17;;;2.30;99.90;;;;;;5003024;28;20603;-85
2023/01/22 14:09:45;;;;;;;85.53;18.63;;;2.40;99.90;;;;;;5002913;28;20178;-85
2023/01/22 14:12:18;;;;;;;83.20;18.58;;;2.40;99.90;;;;;;4981542;28;20189;-85
2023/01/22 14:14:45;;;;;;;84.60;17.25;;;2.40;99.90;;;;;;5001909;28;20170;-85
2023/01/22 14:17:30;;;;;;;81.45;18.08;;;2.40;99.90;;;;;;4984615;28;20174;-85
2023/01/22 14:19:57;;;;;;;86.05;18.50;;;2.40;99.90;;;;;;4985297;28;20673;-85
2023/01/22 14:22:23;;;;;;;85.30;17.58;;;2.40;99.90;;;;;;4984880;28;20202;-85
2023/01/22 14:24:52;;;;;;;83.05;18.13;;;2.50;99.90;;;;;;5002442;28;20553;-85
2023/01/22 14:27:22;;;;;;;85.55;19.15;;;2.50;99.90;;;;;;5002337;28;20648;-85
2023/01/22 14:29:48;;;;;;;87.25;19.80;;;2.50;99.90;;;;;;5003097;28;20337;-85
2023/01/22 14:32:14;;;;;;;82.90;17.58;;;2.50;99.90;;;;;;5002059;28;20185;-85
2023/01/22 14:34:48;;;;;;;85.40;18.37;;;2.50;99.90;;;;;;4985637;28;20170;-85
2023/01/22 14:37:15;;;;;;;82.75;18.80;;;2.40;99.90;;;;;;5002598;28;20170;-86
2023/01/22 14:39:41;;;;;;;84.20;20.58;;;2.40;99.90;;;;;;5002237;28;20167;-85
2023/01/22 14:42:06;;;;;;;88.07;20.60;;;2.40;99.90;;;;;;4984657;28;20205;-85
2023/01/22 14:44:32;;;;;;;85.40;19.57;;;2.40;99.90;;;;;;5002304;28;20805;-86
2023/01/22 14:46:58;;;;;;;88.90;22.73;;;2.40;99.90;;;;;;5002347;28;20189;-85
2023/01/22 14:49:23;;;;;;;84.00;19.30;;;2.40;99.90;;;;;;5002934;28;20174;-86
2023/01/22 14:51:52;;;;;;;86.97;19.53;;;2.40;99.90;;;;;;5001473;28;20653;-86
2023/01/22 14:54:18;;;;;;;87.40;18.17;;;2.40;99.90;;;;;;4984876;28;20174;-85